sensor_id;sensor_type;location;lat;lon;timestamp;P1;durP1;ratioP1;P2;durP2;ratioP2
47930;SDS011;33697;51.520;9.950;2022-11-15T00:02:08;7.68;;;3.53;;
47930;SDS011;33697;51.520;9.950;2022-11-15T00:04:35;7.43;;;3.25;;
47930;SDS011;33697;51.520;9.950;2022-11-15T00:07:01;4.60;;;2.88;;
47930;SDS011;33697;51.520;9.950;2022-11-15T00:09:27;6.45;;;4.15;;
47930;SDS011;33697;51.520;9.950;2022-11-15T00:11:53;6.28;;;2.80;;
47930;SDS011;33697;51.520;9.950;2022-11-15T00:14:20;5.45;;;2.80;;
47930;SDS011;33697;51.520;9.950;2022-11-15T00:16:46;7.65;;;3.33;;
47930;SDS011;33697;51.520;9.950;2022-11-15T00:19:12;6.57;;;3.35;;
47930;SDS011;33697;51.520;9.950;2022-11-15T00:21:39;6.72;;;3.45;;
47930;SDS011;33697;51.520;9.950;2022-11-15T00:24:06;7.68;;;3.65;;
47930;SDS011;33697;51.520;9.950;2022-11-15T00:26:32;8.43;;;3.15;;
47930;SDS011;33697;51.520;9.950;2022-11-15T00:28:58;7.13;;;2.67;;
47930;SDS011;33697;51.520;9.950;2022-11-15T00:31:24;8.20;;;4.65;;
47930;SDS011;33697;51.520;9.950;2022-11-15T00:33:51;4.25;;;3.05;;
47930;SDS011;33697;51.520;9.950;2022-11-15T00:36:17;5.72;;;4.25;;
47930;SDS011;33697;51.520;9.950;2022-11-15T00:38:43;5.22;;;3.35;;
47930;SDS011;33697;51.520;9.950;2022-11-15T00:41:10;8.32;;;3.38;;
47930;SDS011;33697;51.520;9.950;2022-11-15T00:43:36;8.55;;;3.30;;
47930;SDS011;33697;51.520;9.950;2022-11-15T00:46:02;10.88;;;3.17;;
47930;SDS011;33697;51.520;9.950;2022-11-15T00:48:29;8.43;;;3.13;;
47930;SDS011;33697;51.520;9.950;2022-11-15T00:50:55;6.88;;;2.95;;
47930;SDS011;33697;51.520;9.950;2022-11-15T00:53:21;5.47;;;3.42;;
47930;SDS011;33697;51.520;9.950;2022-11-15T00:55:48;6.18;;;2.92;;
47930;SDS011;33697;51.520;9.950;2022-11-15T00:58:14;6.38;;;2.80;;
47930;SDS011;33697;51.520;9.950;2022-11-15T01:00:40;5.30;;;3.60;;
47930;SDS011;33697;51.520;9.950;2022-11-15T01:03:07;6.10;;;3.38;;
47930;SDS011;33697;51.520;9.950;2022-11-15T01:05:33;7.72;;;3.08;;
47930;SDS011;33697;51.520;9.950;2022-11-15T01:07:59;6.95;;;3.47;;
47930;SDS011;33697;51.520;9.950;2022-11-15T01:10:26;5.88;;;3.35;;
47930;SDS011;33697;51.520;9.950;2022-11-15T01:12:52;5.68;;;4.10;;
47930;SDS011;33697;51.520;9.950;2022-11-15T01:15:18;5.50;;;3.22;;
47930;SDS011;33697;51.520;9.950;2022-11-15T01:17:44;5.75;;;3.00;;
47930;SDS011;33697;51.520;9.950;2022-11-15T01:20:11;7.07;;;3.38;;
47930;SDS011;33697;51.520;9.950;2022-11-15T01:22:37;8.65;;;4.22;;
47930;SDS011;33697;51.520;9.950;2022-11-15T01:25:03;6.65;;;3.42;;
47930;SDS011;33697;51.520;9.950;2022-11-15T01:27:30;8.93;;;3.25;;
47930;SDS011;33697;51.520;9.950;2022-11-15T01:29:56;8.57;;;4.60;;
47930;SDS011;33697;51.520;9.950;2022-11-15T01:32:22;11.55;;;3.85;;
47930;SDS011;33697;51.520;9.950;2022-11-15T01:34:49;5.47;;;2.53;;
47930;SDS011;33697;51.520;9.950;2022-11-15T01:37:15;4.85;;;2.92;;
47930;SDS011;33697;51.520;9.950;2022-11-15T01:39:41;6.43;;;3.03;;
47930;SDS011;33697;51.520;9.950;2022-11-15T01:42:11;9.15;;;3.22;;
47930;SDS011;33697;51.520;9.950;2022-11-15T01:44:46;6.60;;;3.38;;
47930;SDS011;33697;51.520;9.950;2022-11-15T01:47:48;5.90;;;2.92;;
47930;SDS011;33697;51.520;9.950;2022-11-15T01:50:08;11.43;;;3.70;;
47930;SDS011;33697;51.520;9.950;2022-11-15T01:52:36;7.68;;;4.13;;
47930;SDS011;33697;51.520;9.950;2022-11-15T01:57:29;7.57;;;3.67;;
47930;SDS011;33697;51.520;9.950;2022-11-15T01:59:55;7.63;;;3.00;;
47930;SDS011;33697;51.520;9.950;2022-11-15T02:02:23;3.55;;;3.22;;
47930;SDS011;33697;51.520;9.950;2022-11-15T02:04:49;6.80;;;3.22;;
47930;SDS011;33697;51.520;9.950;2022-11-15T02:07:16;8.32;;;3.40;;
47930;SDS011;33697;51.520;9.950;2022-11-15T02:09:43;5.00;;;3.47;;
47930;SDS011;33697;51.520;9.950;2022-11-15T02:12:10;5.53;;;3.03;;
47930;SDS011;33697;51.520;9.950;2022-11-15T02:14:39;5.15;;;3.20;;
47930;SDS011;33697;51.520;9.950;2022-11-15T02:22:42;6.80;;;2.97;;
47930;SDS011;33697;51.520;9.950;2022-11-15T02:25:20;5.65;;;3.03;;
47930;SDS011;33697;51.520;9.950;2022-11-15T02:30:20;4.93;;;2.80;;
47930;SDS011;33697;51.520;9.950;2022-11-15T02:40:22;6.43;;;3.67;;
47930;SDS011;33697;51.520;9.950;2022-11-15T02:42:56;6.35;;;3.10;;
47930;SDS011;33697;51.520;9.950;2022-11-15T02:45:44;3.75;;;2.70;;
47930;SDS011;33697;51.520;9.950;2022-11-15T02:50:38;6.95;;;3.78;;
47930;SDS011;33697;51.520;9.950;2022-11-15T02:53:05;6.47;;;3.13;;
47930;SDS011;33697;51.520;9.950;2022-11-15T02:55:37;6.15;;;3.85;;
47930;SDS011;33697;51.520;9.950;2022-11-15T03:03:43;6.43;;;3.78;;
47930;SDS011;33697;51.520;9.950;2022-11-15T03:08:57;6.57;;;3.15;;
47930;SDS011;33697;51.520;9.950;2022-11-15T03:11:24;7.03;;;3.53;;
47930;SDS011;33697;51.520;9.950;2022-11-15T03:16:29;9.20;;;2.88;;
47930;SDS011;33697;51.520;9.950;2022-11-15T03:19:12;5.50;;;3.08;;
47930;SDS011;33697;51.520;9.950;2022-11-15T03:21:39;6.70;;;2.97;;
47930;SDS011;33697;51.520;9.950;2022-11-15T03:24:06;5.95;;;2.78;;
47930;SDS011;33697;51.520;9.950;2022-11-15T03:26:34;4.07;;;2.65;;
47930;SDS011;33697;51.520;9.950;2022-11-15T03:29:03;7.03;;;3.20;;
47930;SDS011;33697;51.520;9.950;2022-11-15T03:31:31;5.47;;;3.15;;
47930;SDS011;33697;51.520;9.950;2022-11-15T03:34:30;6.38;;;3.00;;
47930;SDS011;33697;51.520;9.950;2022-11-15T03:36:57;4.30;;;2.95;;
47930;SDS011;33697;51.520;9.950;2022-11-15T03:39:23;6.45;;;3.15;;
47930;SDS011;33697;51.520;9.950;2022-11-15T03:46:46;3.63;;;2.83;;
47930;SDS011;33697;51.520;9.950;2022-11-15T03:49:15;6.40;;;3.00;;
47930;SDS011;33697;51.520;9.950;2022-11-15T03:51:43;4.38;;;3.40;;
47930;SDS011;33697;51.520;9.950;2022-11-15T03:54:10;4.60;;;2.45;;
47930;SDS011;33697;51.520;9.950;2022-11-15T03:56:37;3.20;;;2.60;;
47930;SDS011;33697;51.520;9.950;2022-11-15T03:59:04;3.92;;;2.85;;
47930;SDS011;33697;51.520;9.950;2022-11-15T04:01:30;5.88;;;3.05;;
47930;SDS011;33697;51.520;9.950;2022-11-15T04:03:56;7.07;;;3.17;;
47930;SDS011;33697;51.520;9.950;2022-11-15T04:06:23;11.52;;;3.20;;
47930;SDS011;33697;51.520;9.950;2022-11-15T04:08:49;3.20;;;2.60;;
47930;SDS011;33697;51.520;9.950;2022-11-15T04:11:15;11.20;;;3.63;;
47930;SDS011;33697;51.520;9.950;2022-11-15T04:13:41;6.63;;;3.55;;
47930;SDS011;33697;51.520;9.950;2022-11-15T04:16:08;3.78;;;2.83;;
47930;SDS011;33697;51.520;9.950;2022-11-15T04:18:34;7.88;;;3.28;;
47930;SDS011;33697;51.520;9.950;2022-11-15T04:21:00;5.35;;;2.55;;
47930;SDS011;33697;51.520;9.950;2022-11-15T04:23:45;8.63;;;2.97;;
47930;SDS011;33697;51.520;9.950;2022-11-15T04:26:18;6.03;;;3.80;;
47930;SDS011;33697;51.520;9.950;2022-11-15T04:28:45;6.97;;;3.10;;
47930;SDS011;33697;51.520;9.950;2022-11-15T04:31:30;10.95;;;3.60;;
47930;SDS011;33697;51.520;9.950;2022-11-15T04:33:56;5.22;;;3.42;;
47930;SDS011;33697;51.520;9.950;2022-11-15T04:36:23;5.80;;;3.17;;
47930;SDS011;33697;51.520;9.950;2022-11-15T04:39:08;5.03;;;3.40;;
47930;SDS011;33697;51.520;9.950;2022-11-15T04:41:35;7.28;;;3.80;;
47930;SDS011;33697;51.520;9.950;2022-11-15T04:44:01;4.05;;;3.20;;
47930;SDS011;33697;51.520;9.950;2022-11-15T04:46:28;5.00;;;3.38;;
47930;SDS011;33697;51.520;9.950;2022-11-15T04:48:54;6.72;;;3.55;;
47930;SDS011;33697;51.520;9.950;2022-11-15T04:51:24;6.15;;;3.67;;
47930;SDS011;33697;51.520;9.950;2022-11-15T04:53:51;4.20;;;3.72;;
47930;SDS011;33697;51.520;9.950;2022-11-15T04:56:17;5.32;;;3.28;;
47930;SDS011;33697;51.520;9.950;2022-11-15T04:58:43;7.53;;;3.78;;
47930;SDS011;33697;51.520;9.950;2022-11-15T05:01:10;7.28;;;4.50;;
47930;SDS011;33697;51.520;9.950;2022-11-15T05:03:38;11.07;;;5.38;;
47930;SDS011;33697;51.520;9.950;2022-11-15T05:06:23;12.00;;;5.93;;
47930;SDS011;33697;51.520;9.950;2022-11-15T05:08:49;10.27;;;4.78;;
47930;SDS011;33697;51.520;9.950;2022-11-15T05:11:15;6.30;;;3.67;;
47930;SDS011;33697;51.520;9.950;2022-11-15T05:13:42;6.63;;;4.22;;
47930;SDS011;33697;51.520;9.950;2022-11-15T05:16:08;4.78;;;4.30;;
47930;SDS011;33697;51.520;9.950;2022-11-15T05:18:34;8.40;;;5.10;;
47930;SDS011;33697;51.520;9.950;2022-11-15T05:21:04;7.07;;;4.53;;
47930;SDS011;33697;51.520;9.950;2022-11-15T05:23:30;7.55;;;4.07;;
47930;SDS011;33697;51.520;9.950;2022-11-15T05:26:00;6.90;;;4.82;;
47930;SDS011;33697;51.520;9.950;2022-11-15T05:28:34;8.55;;;4.55;;
47930;SDS011;33697;51.520;9.950;2022-11-15T05:31:10;3.58;;;3.25;;
47930;SDS011;33697;51.520;9.950;2022-11-15T05:33:37;5.88;;;4.40;;
47930;SDS011;33697;51.520;9.950;2022-11-15T05:36:05;8.65;;;5.20;;
47930;SDS011;33697;51.520;9.950;2022-11-15T05:38:32;8.13;;;5.15;;
47930;SDS011;33697;51.520;9.950;2022-11-15T05:40:59;9.10;;;6.57;;
47930;SDS011;33697;51.520;9.950;2022-11-15T05:43:26;8.43;;;4.90;;
47930;SDS011;33697;51.520;9.950;2022-11-15T05:45:53;8.45;;;5.13;;
47930;SDS011;33697;51.520;9.950;2022-11-15T05:48:20;7.00;;;5.18;;
47930;SDS011;33697;51.520;9.950;2022-11-15T05:50:46;7.97;;;5.53;;
47930;SDS011;33697;51.520;9.950;2022-11-15T05:53:14;11.63;;;5.35;;
47930;SDS011;33697;51.520;9.950;2022-11-15T05:55:42;11.80;;;6.38;;
47930;SDS011;33697;51.520;9.950;2022-11-15T05:58:08;8.65;;;5.32;;
47930;SDS011;33697;51.520;9.950;2022-11-15T06:00:35;11.52;;;4.63;;
47930;SDS011;33697;51.520;9.950;2022-11-15T06:03:01;7.55;;;4.88;;
47930;SDS011;33697;51.520;9.950;2022-11-15T06:05:27;7.07;;;5.10;;
47930;SDS011;33697;51.520;9.950;2022-11-15T06:07:57;5.50;;;4.50;;
47930;SDS011;33697;51.520;9.950;2022-11-15T06:10:23;10.23;;;4.00;;
47930;SDS011;33697;51.520;9.950;2022-11-15T06:12:56;11.95;;;4.45;;
47930;SDS011;33697;51.520;9.950;2022-11-15T06:15:23;5.97;;;3.97;;
47930;SDS011;33697;51.520;9.950;2022-11-15T06:17:49;4.93;;;4.28;;
47930;SDS011;33697;51.520;9.950;2022-11-15T06:20:15;6.70;;;4.57;;
47930;SDS011;33697;51.520;9.950;2022-11-15T06:22:42;5.07;;;4.57;;
47930;SDS011;33697;51.520;9.950;2022-11-15T06:25:08;7.90;;;3.22;;
47930;SDS011;33697;51.520;9.950;2022-11-15T06:27:34;5.03;;;4.45;;
47930;SDS011;33697;51.520;9.950;2022-11-15T06:30:00;8.52;;;4.32;;
47930;SDS011;33697;51.520;9.950;2022-11-15T06:32:28;6.53;;;4.45;;
47930;SDS011;33697;51.520;9.950;2022-11-15T06:34:54;5.32;;;3.60;;
47930;SDS011;33697;51.520;9.950;2022-11-15T06:37:21;11.05;;;4.80;;
47930;SDS011;33697;51.520;9.950;2022-11-15T06:39:47;5.53;;;4.13;;
47930;SDS011;33697;51.520;9.950;2022-11-15T06:42:13;6.90;;;3.72;;
47930;SDS011;33697;51.520;9.950;2022-11-15T06:44:40;4.80;;;2.85;;
47930;SDS011;33697;51.520;9.950;2022-11-15T06:47:06;6.57;;;3.78;;
47930;SDS011;33697;51.520;9.950;2022-11-15T06:49:32;7.10;;;3.42;;
47930;SDS011;33697;51.520;9.950;2022-11-15T06:51:58;5.07;;;2.97;;
47930;SDS011;33697;51.520;9.950;2022-11-15T06:54:25;6.05;;;3.67;;
47930;SDS011;33697;51.520;9.950;2022-11-15T06:56:51;7.38;;;4.15;;
47930;SDS011;33697;51.520;9.950;2022-11-15T06:59:17;5.30;;;3.75;;
47930;SDS011;33697;51.520;9.950;2022-11-15T07:01:44;11.68;;;3.80;;
47930;SDS011;33697;51.520;9.950;2022-11-15T07:04:10;8.23;;;3.92;;
47930;SDS011;33697;51.520;9.950;2022-11-15T07:06:36;6.53;;;5.00;;
47930;SDS011;33697;51.520;9.950;2022-11-15T07:09:03;5.07;;;3.35;;
47930;SDS011;33697;51.520;9.950;2022-11-15T07:11:29;8.23;;;3.65;;
47930;SDS011;33697;51.520;9.950;2022-11-15T07:13:55;7.05;;;4.20;;
47930;SDS011;33697;51.520;9.950;2022-11-15T07:16:22;7.25;;;3.67;;
47930;SDS011;33697;51.520;9.950;2022-11-15T07:18:48;5.10;;;3.30;;
47930;SDS011;33697;51.520;9.950;2022-11-15T07:21:14;6.15;;;3.92;;
47930;SDS011;33697;51.520;9.950;2022-11-15T07:23:40;6.15;;;4.03;;
47930;SDS011;33697;51.520;9.950;2022-11-15T07:26:07;8.00;;;4.30;;
47930;SDS011;33697;51.520;9.950;2022-11-15T07:28:34;5.22;;;4.35;;
47930;SDS011;33697;51.520;9.950;2022-11-15T07:31:04;5.13;;;3.97;;
47930;SDS011;33697;51.520;9.950;2022-11-15T07:33:30;7.20;;;3.38;;
47930;SDS011;33697;51.520;9.950;2022-11-15T07:36:04;5.82;;;3.08;;
47930;SDS011;33697;51.520;9.950;2022-11-15T07:38:31;9.98;;;4.82;;
47930;SDS011;33697;51.520;9.950;2022-11-15T07:41:03;3.70;;;3.13;;
47930;SDS011;33697;51.520;9.950;2022-11-15T07:43:29;4.68;;;4.28;;
47930;SDS011;33697;51.520;9.950;2022-11-15T07:45:59;6.80;;;4.10;;
47930;SDS011;33697;51.520;9.950;2022-11-15T07:48:30;5.63;;;3.58;;
47930;SDS011;33697;51.520;9.950;2022-11-15T07:51:10;7.28;;;3.83;;
47930;SDS011;33697;51.520;9.950;2022-11-15T07:53:39;4.25;;;3.17;;
47930;SDS011;33697;51.520;9.950;2022-11-15T07:56:06;6.20;;;4.03;;
47930;SDS011;33697;51.520;9.950;2022-11-15T07:58:33;9.00;;;3.70;;
47930;SDS011;33697;51.520;9.950;2022-11-15T08:01:03;3.20;;;2.63;;
47930;SDS011;33697;51.520;9.950;2022-11-15T08:03:30;7.30;;;4.35;;
47930;SDS011;33697;51.520;9.950;2022-11-15T08:05:56;7.28;;;4.18;;
47930;SDS011;33697;51.520;9.950;2022-11-15T08:08:23;6.75;;;3.90;;
47930;SDS011;33697;51.520;9.950;2022-11-15T08:10:49;7.80;;;4.32;;
47930;SDS011;33697;51.520;9.950;2022-11-15T08:13:15;4.22;;;3.55;;
47930;SDS011;33697;51.520;9.950;2022-11-15T08:15:42;8.15;;;3.83;;
47930;SDS011;33697;51.520;9.950;2022-11-15T08:18:11;8.75;;;4.15;;
47930;SDS011;33697;51.520;9.950;2022-11-15T08:20:38;6.10;;;4.20;;
47930;SDS011;33697;51.520;9.950;2022-11-15T08:23:04;9.70;;;4.30;;
47930;SDS011;33697;51.520;9.950;2022-11-15T08:25:31;5.22;;;3.83;;
47930;SDS011;33697;51.520;9.950;2022-11-15T08:27:59;9.82;;;3.80;;
47930;SDS011;33697;51.520;9.950;2022-11-15T08:30:26;8.15;;;3.40;;
47930;SDS011;33697;51.520;9.950;2022-11-15T08:32:53;3.78;;;3.38;;
47930;SDS011;33697;51.520;9.950;2022-11-15T08:35:20;4.57;;;3.47;;
47930;SDS011;33697;51.520;9.950;2022-11-15T08:37:54;5.85;;;3.60;;
47930;SDS011;33697;51.520;9.950;2022-11-15T08:40:20;6.88;;;4.70;;
47930;SDS011;33697;51.520;9.950;2022-11-15T08:42:47;6.40;;;4.38;;
47930;SDS011;33697;51.520;9.950;2022-11-15T08:45:14;7.72;;;3.92;;
47930;SDS011;33697;51.520;9.950;2022-11-15T08:47:40;10.25;;;3.72;;
47930;SDS011;33697;51.520;9.950;2022-11-15T08:50:07;6.95;;;3.28;;
47930;SDS011;33697;51.520;9.950;2022-11-15T08:52:33;4.82;;;3.33;;
47930;SDS011;33697;51.520;9.950;2022-11-15T08:54:59;6.78;;;3.13;;
47930;SDS011;33697;51.520;9.950;2022-11-15T08:57:28;7.50;;;4.43;;
47930;SDS011;33697;51.520;9.950;2022-11-15T08:59:54;6.80;;;3.75;;
47930;SDS011;33697;51.520;9.950;2022-11-15T09:02:20;7.13;;;3.38;;
47930;SDS011;33697;51.520;9.950;2022-11-15T09:04:47;8.85;;;4.05;;
47930;SDS011;33697;51.520;9.950;2022-11-15T09:07:14;6.72;;;3.45;;
47930;SDS011;33697;51.520;9.950;2022-11-15T09:09:40;4.22;;;3.35;;
47930;SDS011;33697;51.520;9.950;2022-11-15T09:12:07;5.65;;;3.40;;
47930;SDS011;33697;51.520;9.950;2022-11-15T09:14:33;11.85;;;4.43;;
47930;SDS011;33697;51.520;9.950;2022-11-15T09:17:00;8.18;;;3.83;;
47930;SDS011;33697;51.520;9.950;2022-11-15T09:19:27;5.97;;;3.42;;
47930;SDS011;33697;51.520;9.950;2022-11-15T09:21:53;6.85;;;3.38;;
47930;SDS011;33697;51.520;9.950;2022-11-15T09:24:20;6.25;;;3.20;;
47930;SDS011;33697;51.520;9.950;2022-11-15T09:26:47;4.82;;;3.50;;
47930;SDS011;33697;51.520;9.950;2022-11-15T09:29:15;4.30;;;3.05;;
47930;SDS011;33697;51.520;9.950;2022-11-15T09:31:41;7.40;;;2.78;;
47930;SDS011;33697;51.520;9.950;2022-11-15T09:34:08;4.95;;;2.83;;
47930;SDS011;33697;51.520;9.950;2022-11-15T09:36:34;7.07;;;2.78;;
47930;SDS011;33697;51.520;9.950;2022-11-15T09:39:01;6.88;;;2.45;;
47930;SDS011;33697;51.520;9.950;2022-11-15T09:44:19;5.70;;;3.28;;
47930;SDS011;33697;51.520;9.950;2022-11-15T09:46:57;9.88;;;6.25;;
47930;SDS011;33697;51.520;9.950;2022-11-15T09:49:25;4.38;;;3.75;;
47930;SDS011;33697;51.520;9.950;2022-11-15T09:51:53;6.10;;;3.28;;
47930;SDS011;33697;51.520;9.950;2022-11-15T09:54:27;5.72;;;3.35;;
47930;SDS011;33697;51.520;9.950;2022-11-15T10:00:02;5.35;;;2.85;;
47930;SDS011;33697;51.520;9.950;2022-11-15T10:03:11;6.10;;;2.90;;
47930;SDS011;33697;51.520;9.950;2022-11-15T10:05:39;2.67;;;2.15;;
47930;SDS011;33697;51.520;9.950;2022-11-15T10:08:12;6.57;;;2.55;;
47930;SDS011;33697;51.520;9.950;2022-11-15T10:10:44;4.97;;;2.35;;
47930;SDS011;33697;51.520;9.950;2022-11-15T10:13:13;7.38;;;3.10;;
47930;SDS011;33697;51.520;9.950;2022-11-15T10:15:42;5.57;;;2.50;;
47930;SDS011;33697;51.520;9.950;2022-11-15T10:20:48;4.68;;;2.67;;
47930;SDS011;33697;51.520;9.950;2022-11-15T10:23:16;7.55;;;2.40;;
47930;SDS011;33697;51.520;9.950;2022-11-15T10:25:43;4.25;;;2.03;;
47930;SDS011;33697;51.520;9.950;2022-11-15T10:28:14;3.85;;;2.17;;
47930;SDS011;33697;51.520;9.950;2022-11-15T10:30:42;7.25;;;2.55;;
47930;SDS011;33697;51.520;9.950;2022-11-15T10:33:20;4.72;;;2.28;;
47930;SDS011;33697;51.520;9.950;2022-11-15T10:36:13;4.07;;;2.33;;
47930;SDS011;33697;51.520;9.950;2022-11-15T10:38:50;8.07;;;2.63;;
47930;SDS011;33697;51.520;9.950;2022-11-15T10:41:18;4.40;;;2.30;;
47930;SDS011;33697;51.520;9.950;2022-11-15T10:43:45;2.33;;;2.03;;
47930;SDS011;33697;51.520;9.950;2022-11-15T10:46:21;3.42;;;2.90;;
47930;SDS011;33697;51.520;9.950;2022-11-15T10:52:23;3.72;;;1.92;;
47930;SDS011;33697;51.520;9.950;2022-11-15T10:54:33;2.88;;;1.67;;
47930;SDS011;33697;51.520;9.950;2022-11-15T10:56:59;2.43;;;1.90;;
47930;SDS011;33697;51.520;9.950;2022-11-15T10:59:30;3.88;;;1.15;;
47930;SDS011;33697;51.520;9.950;2022-11-15T11:04:49;13.00;;;2.78;;
47930;SDS011;33697;51.520;9.950;2022-11-15T11:07:37;1.70;;;0.90;;
47930;SDS011;33697;51.520;9.950;2022-11-15T11:10:05;2.30;;;0.98;;
47930;SDS011;33697;51.520;9.950;2022-11-15T11:12:51;3.95;;;1.08;;
47930;SDS011;33697;51.520;9.950;2022-11-15T11:15:18;3.72;;;1.15;;
47930;SDS011;33697;51.520;9.950;2022-11-15T11:17:51;2.92;;;1.15;;
47930;SDS011;33697;51.520;9.950;2022-11-15T11:25:30;2.88;;;0.45;;
47930;SDS011;33697;51.520;9.950;2022-11-15T11:28:05;2.30;;;0.95;;
47930;SDS011;33697;51.520;9.950;2022-11-15T11:30:39;3.00;;;1.27;;
47930;SDS011;33697;51.520;9.950;2022-11-15T11:40:35;2.83;;;1.55;;
47930;SDS011;33697;51.520;9.950;2022-11-15T11:51:11;2.60;;;1.25;;
47930;SDS011;33697;51.520;9.950;2022-11-15T11:56:11;4.85;;;1.27;;
47930;SDS011;33697;51.520;9.950;2022-11-15T11:58:43;2.88;;;1.25;;
47930;SDS011;33697;51.520;9.950;2022-11-15T12:03:40;2.78;;;1.05;;
47930;SDS011;33697;51.520;9.950;2022-11-15T12:06:30;6.88;;;2.08;;
47930;SDS011;33697;51.520;9.950;2022-11-15T12:09:41;2.50;;;1.83;;
47930;SDS011;33697;51.520;9.950;2022-11-15T12:17:11;6.45;;;1.48;;
47930;SDS011;33697;51.520;9.950;2022-11-15T12:19:38;4.40;;;1.52;;
47930;SDS011;33697;51.520;9.950;2022-11-15T12:22:17;2.55;;;1.98;;
47930;SDS011;33697;51.520;9.950;2022-11-15T12:27:17;4.35;;;1.52;;
47930;SDS011;33697;51.520;9.950;2022-11-15T12:29:52;1.77;;;1.27;;
47930;SDS011;33697;51.520;9.950;2022-11-15T12:34:49;5.90;;;1.83;;
47930;SDS011;33697;51.520;9.950;2022-11-15T12:37:32;2.08;;;1.17;;
47930;SDS011;33697;51.520;9.950;2022-11-15T12:40:15;7.40;;;1.77;;
47930;SDS011;33697;51.520;9.950;2022-11-15T12:45:33;5.22;;;1.67;;
47930;SDS011;33697;51.520;9.950;2022-11-15T12:58:40;3.33;;;1.85;;
47930;SDS011;33697;51.520;9.950;2022-11-15T13:01:08;5.47;;;1.65;;
47930;SDS011;33697;51.520;9.950;2022-11-15T13:03:35;4.90;;;1.73;;
47930;SDS011;33697;51.520;9.950;2022-11-15T13:06:03;3.17;;;1.33;;
47930;SDS011;33697;51.520;9.950;2022-11-15T13:08:36;3.85;;;1.55;;
47930;SDS011;33697;51.520;9.950;2022-11-15T13:13:55;2.10;;;1.15;;
47930;SDS011;33697;51.520;9.950;2022-11-15T13:16:21;2.83;;;1.52;;
47930;SDS011;33697;51.520;9.950;2022-11-15T13:18:54;4.55;;;1.60;;
47930;SDS011;33697;51.520;9.950;2022-11-15T13:21:23;2.38;;;1.20;;
47930;SDS011;33697;51.520;9.950;2022-11-15T13:24:15;7.72;;;2.70;;
47930;SDS011;33697;51.520;9.950;2022-11-15T13:26:42;6.40;;;2.00;;
47930;SDS011;33697;51.520;9.950;2022-11-15T13:29:15;3.33;;;1.50;;
47930;SDS011;33697;51.520;9.950;2022-11-15T13:31:43;1.80;;;1.00;;
47930;SDS011;33697;51.520;9.950;2022-11-15T13:34:43;5.45;;;1.42;;
47930;SDS011;33697;51.520;9.950;2022-11-15T13:39:47;3.33;;;1.98;;
47930;SDS011;33697;51.520;9.950;2022-11-15T13:42:20;3.08;;;1.33;;
47930;SDS011;33697;51.520;9.950;2022-11-15T13:44:56;3.63;;;1.60;;
47930;SDS011;33697;51.520;9.950;2022-11-15T13:47:24;4.88;;;1.50;;
47930;SDS011;33697;51.520;9.950;2022-11-15T13:49:52;2.50;;;1.30;;
47930;SDS011;33697;51.520;9.950;2022-11-15T13:52:19;4.72;;;2.25;;
47930;SDS011;33697;51.520;9.950;2022-11-15T13:54:57;8.55;;;2.17;;
47930;SDS011;33697;51.520;9.950;2022-11-15T13:57:25;2.97;;;1.08;;
47930;SDS011;33697;51.520;9.950;2022-11-15T13:59:54;6.75;;;2.20;;
47930;SDS011;33697;51.520;9.950;2022-11-15T14:02:25;5.13;;;1.92;;
47930;SDS011;33697;51.520;9.950;2022-11-15T14:04:53;2.50;;;1.55;;
47930;SDS011;33697;51.520;9.950;2022-11-15T14:07:21;5.03;;;2.00;;
47930;SDS011;33697;51.520;9.950;2022-11-15T14:09:48;3.75;;;1.83;;
47930;SDS011;33697;51.520;9.950;2022-11-15T14:14:47;3.65;;;2.03;;
47930;SDS011;33697;51.520;9.950;2022-11-15T14:17:47;3.83;;;2.33;;
47930;SDS011;33697;51.520;9.950;2022-11-15T14:22:56;4.53;;;1.77;;
47930;SDS011;33697;51.520;9.950;2022-11-15T14:25:24;2.08;;;1.70;;
47930;SDS011;33697;51.520;9.950;2022-11-15T14:30:36;4.97;;;2.38;;
47930;SDS011;33697;51.520;9.950;2022-11-15T14:33:11;4.18;;;2.20;;
47930;SDS011;33697;51.520;9.950;2022-11-15T14:35:41;5.97;;;2.23;;
47930;SDS011;33697;51.520;9.950;2022-11-15T14:38:07;4.70;;;3.03;;
47930;SDS011;33697;51.520;9.950;2022-11-15T14:40:34;5.15;;;2.70;;
47930;SDS011;33697;51.520;9.950;2022-11-15T14:43:00;4.20;;;2.80;;
47930;SDS011;33697;51.520;9.950;2022-11-15T14:45:27;3.70;;;2.38;;
47930;SDS011;33697;51.520;9.950;2022-11-15T14:47:53;8.05;;;2.47;;
47930;SDS011;33697;51.520;9.950;2022-11-15T14:50:20;4.70;;;2.60;;
47930;SDS011;33697;51.520;9.950;2022-11-15T14:52:47;4.93;;;2.58;;
47930;SDS011;33697;51.520;9.950;2022-11-15T14:57:46;4.03;;;2.97;;
47930;SDS011;33697;51.520;9.950;2022-11-15T15:00:12;4.32;;;3.08;;
47930;SDS011;33697;51.520;9.950;2022-11-15T15:02:39;4.70;;;2.50;;
47930;SDS011;33697;51.520;9.950;2022-11-15T15:05:13;5.97;;;2.95;;
47930;SDS011;33697;51.520;9.950;2022-11-15T15:07:40;5.28;;;3.33;;
47930;SDS011;33697;51.520;9.950;2022-11-15T15:10:06;9.75;;;3.45;;
47930;SDS011;33697;51.520;9.950;2022-11-15T15:12:53;5.13;;;3.08;;
47930;SDS011;33697;51.520;9.950;2022-11-15T15:15:26;9.20;;;3.35;;
47930;SDS011;33697;51.520;9.950;2022-11-15T15:17:53;5.65;;;2.78;;
47930;SDS011;33697;51.520;9.950;2022-11-15T15:20:19;7.15;;;2.85;;
47930;SDS011;33697;51.520;9.950;2022-11-15T15:22:45;4.35;;;2.80;;
47930;SDS011;33697;51.520;9.950;2022-11-15T15:25:28;8.25;;;3.47;;
47930;SDS011;33697;51.520;9.950;2022-11-15T15:27:54;12.50;;;3.20;;
47930;SDS011;33697;51.520;9.950;2022-11-15T15:30:21;3.35;;;2.78;;
47930;SDS011;33697;51.520;9.950;2022-11-15T15:32:48;4.90;;;3.47;;
47930;SDS011;33697;51.520;9.950;2022-11-15T15:35:15;5.55;;;2.75;;
47930;SDS011;33697;51.520;9.950;2022-11-15T15:37:41;4.55;;;3.45;;
47930;SDS011;33697;51.520;9.950;2022-11-15T15:40:19;4.90;;;2.88;;
47930;SDS011;33697;51.520;9.950;2022-11-15T15:42:46;6.07;;;3.40;;
47930;SDS011;33697;51.520;9.950;2022-11-15T15:45:13;6.55;;;3.28;;
47930;SDS011;33697;51.520;9.950;2022-11-15T15:47:41;4.22;;;3.13;;
47930;SDS011;33697;51.520;9.950;2022-11-15T15:50:26;4.95;;;3.05;;
47930;SDS011;33697;51.520;9.950;2022-11-15T15:52:54;5.68;;;3.53;;
47930;SDS011;33697;51.520;9.950;2022-11-15T15:55:21;6.90;;;3.90;;
47930;SDS011;33697;51.520;9.950;2022-11-15T15:57:47;6.25;;;4.18;;
47930;SDS011;33697;51.520;9.950;2022-11-15T16:00:14;4.55;;;3.10;;
47930;SDS011;33697;51.520;9.950;2022-11-15T16:02:40;5.88;;;4.22;;
47930;SDS011;33697;51.520;9.950;2022-11-15T16:05:07;6.40;;;3.75;;
47930;SDS011;33697;51.520;9.950;2022-11-15T16:07:34;6.40;;;4.47;;
47930;SDS011;33697;51.520;9.950;2022-11-15T16:10:01;4.68;;;3.80;;
47930;SDS011;33697;51.520;9.950;2022-11-15T16:14:53;5.55;;;4.15;;
47930;SDS011;33697;51.520;9.950;2022-11-15T16:17:20;8.35;;;5.35;;
47930;SDS011;33697;51.520;9.950;2022-11-15T16:19:47;7.95;;;4.30;;
47930;SDS011;33697;51.520;9.950;2022-11-15T16:22:13;5.43;;;3.75;;
47930;SDS011;33697;51.520;9.950;2022-11-15T16:24:40;5.60;;;4.05;;
47930;SDS011;33697;51.520;9.950;2022-11-15T16:27:11;7.75;;;5.07;;
47930;SDS011;33697;51.520;9.950;2022-11-15T16:29:38;8.77;;;4.57;;
47930;SDS011;33697;51.520;9.950;2022-11-15T16:32:04;12.13;;;6.03;;
47930;SDS011;33697;51.520;9.950;2022-11-15T16:34:31;8.38;;;4.88;;
47930;SDS011;33697;51.520;9.950;2022-11-15T16:37:05;14.82;;;7.63;;
47930;SDS011;33697;51.520;9.950;2022-11-15T16:39:32;10.18;;;5.68;;
47930;SDS011;33697;51.520;9.950;2022-11-15T16:41:58;8.43;;;4.43;;
47930;SDS011;33697;51.520;9.950;2022-11-15T16:44:25;8.88;;;4.82;;
47930;SDS011;33697;51.520;9.950;2022-11-15T16:46:52;7.75;;;4.38;;
47930;SDS011;33697;51.520;9.950;2022-11-15T16:49:19;9.00;;;4.53;;
47930;SDS011;33697;51.520;9.950;2022-11-15T16:51:46;5.78;;;4.93;;
47930;SDS011;33697;51.520;9.950;2022-11-15T16:54:12;12.18;;;5.40;;
47930;SDS011;33697;51.520;9.950;2022-11-15T16:56:39;8.18;;;5.07;;
47930;SDS011;33697;51.520;9.950;2022-11-15T16:59:05;8.73;;;4.88;;